Time;durP1;ratioP1;P1;durP2;ratioP2;P2;SDS_P1;SDS_P2;PMS_P1;PMS_P2;Temp;Humidity;BMP_temperature;BMP_pressure;BME280_temperature;BME280_humidity;BME280_pressure;Samples;Min_cycle;Max_cycle;Signal;HPM_P1;HPM_P2
2023/02/26 00:01:16;;;;;;;5.85;2.95;;;;;;;;;;4973578;28;20055;-73
2023/02/26 00:03:43;;;;;;;4.75;2.78;;;;;;;;;;4967526;28;20082;-74
2023/02/26 00:06:09;;;;;;;5.57;2.78;;;;;;;;;;4956371;28;20054;-74
2023/02/26 00:08:36;;;;;;;6.43;2.63;;;;;;;;;;4957011;28;20145;-77
2023/02/26 00:11:06;;;;;;;2.80;2.20;;;;;;;;;;4990132;28;20097;-76
2023/02/26 00:13:35;;;;;;;4.72;2.42;;;;;;;;;;4959421;28;20050;-77
2023/02/26 00:16:03;;;;;;;4.97;3.53;;;;;;;;;;4973779;28;20423;-77
2023/02/26 00:18:30;;;;;;;3.05;2.17;;;;;;;;;;4989361;28;20137;-76
2023/02/26 00:20:57;;;;;;;4.75;2.70;;;;;;;;;;4989612;28;20141;-76
2023/02/26 00:23:24;;;;;;;4.18;2.45;;;;;;;;;;4973702;28;20066;-76
2023/02/26 00:25:51;;;;;;;3.65;2.50;;;;;;;;;;4973807;28;20441;-76
2023/02/26 00:28:18;;;;;;;5.63;2.55;;;;;;;;;;4973170;28;20059;-76
2023/02/26 00:30:45;;;;;;;3.53;2.40;;;;;;;;;;4988924;28;20066;-76
2023/02/26 00:33:12;;;;;;;5.18;2.13;;;;;;;;;;4974045;28;20055;-76
2023/02/26 00:35:39;;;;;;;6.93;2.95;;;;;;;;;;4973324;28;20430;-77
2023/02/26 00:38:08;;;;;;;4.93;2.70;;;;;;;;;;4956385;28;20427;-76
2023/02/26 00:40:45;;;;;;;5.35;2.90;;;;;;;;;;4972493;28;20095;-76
2023/02/26 00:43:23;;;;;;;5.55;3.10;;;;;;;;;;4974460;28;20062;-76
2023/02/26 00:46:02;;;;;;;7.22;3.80;;;;;;;;;;4972011;28;20058;-76
2023/02/26 00:48:52;;;;;;;8.18;3.15;;;;;;;;;;4956177;28;20187;-77
2023/02/26 00:51:37;;;;;;;4.32;2.60;;;;;;;;;;4972672;28;20866;-76
2023/02/26 00:54:11;;;;;;;7.47;2.65;;;;;;;;;;4974141;28;20116;-76
2023/02/26 00:56:38;;;;;;;8.95;2.70;;;;;;;;;;4956595;28;20050;-77
2023/02/26 00:59:04;;;;;;;7.53;3.03;;;;;;;;;;4987984;28;20055;-77
2023/02/26 01:01:31;;;;;;;4.68;2.83;;;;;;;;;;4971985;28;20054;-76
2023/02/26 01:03:58;;;;;;;4.70;3.38;;;;;;;;;;4988470;28;20153;-77
2023/02/26 01:06:31;;;;;;;5.00;2.80;;;;;;;;;;4956746;28;20142;-77
2023/02/26 01:09:09;;;;;;;4.78;3.15;;;;;;;;;;4972880;28;20117;-76
2023/02/26 01:11:36;;;;;;;6.22;3.15;;;;;;;;;;4988630;28;20057;-76
2023/02/26 01:14:04;;;;;;;6.30;3.40;;;;;;;;;;4972105;28;20066;-76
2023/02/26 01:16:34;;;;;;;4.53;2.65;;;;;;;;;;4972102;28;20090;-77
2023/02/26 01:19:08;;;;;;;6.05;2.88;;;;;;;;;;4971190;28;20051;-76
2023/02/26 01:21:36;;;;;;;6.20;2.92;;;;;;;;;;4963382;28;20060;-77
2023/02/26 01:24:05;;;;;;;7.35;3.28;;;;;;;;;;4955817;28;20050;-76
2023/02/26 01:26:32;;;;;;;5.75;3.28;;;;;;;;;;4971456;28;20499;-76
2023/02/26 01:28:59;;;;;;;7.28;3.50;;;;;;;;;;4955038;28;20601;-76
2023/02/26 01:31:53;;;;;;;5.80;2.15;;;;;;;;;;4987132;28;20059;-76
2023/02/26 01:34:33;;;;;;;4.53;2.30;;;;;;;;;;4973194;28;20058;-76
2023/02/26 01:37:21;;;;;;;4.60;2.63;;;;;;;;;;4988756;28;20061;-77
2023/02/26 01:39:59;;;;;;;4.15;2.15;;;;;;;;;;4974428;28;20487;-77
2023/02/26 01:42:26;;;;;;;3.85;2.63;;;;;;;;;;4992109;28;20185;-77
2023/02/26 01:45:02;;;;;;;8.90;2.75;;;;;;;;;;4974504;28;20431;-77
2023/02/26 01:47:49;;;;;;;4.97;2.85;;;;;;;;;;4989306;28;20050;-76
2023/02/26 01:50:18;;;;;;;7.97;2.60;;;;;;;;;;4974205;28;20515;-76
2023/02/26 01:52:48;;;;;;;4.45;2.25;;;;;;;;;;4972202;28;20085;-75
2023/02/26 01:55:25;;;;;;;4.85;2.63;;;;;;;;;;4988968;28;20059;-77
2023/02/26 01:57:55;;;;;;;6.53;2.10;;;;;;;;;;4989099;28;20050;-77
2023/02/26 02:00:21;;;;;;;8.43;2.60;;;;;;;;;;4971822;28;20522;-77
2023/02/26 02:02:49;;;;;;;4.18;2.60;;;;;;;;;;4972535;28;20051;-77
2023/02/26 02:05:20;;;;;;;5.65;2.80;;;;;;;;;;4957505;28;20066;-76
2023/02/26 02:07:47;;;;;;;6.25;2.70;;;;;;;;;;4972426;28;20523;-76
2023/02/26 02:10:14;;;;;;;4.43;2.72;;;;;;;;;;4973790;28;20463;-76
2023/02/26 02:12:54;;;;;;;3.80;2.40;;;;;;;;;;4973729;28;20054;-77
2023/02/26 02:15:24;;;;;;;4.75;2.60;;;;;;;;;;4958116;28;20059;-77
2023/02/26 02:17:55;;;;;;;4.75;2.90;;;;;;;;;;4990258;28;20108;-77
2023/02/26 02:20:46;;;;;;;6.20;2.65;;;;;;;;;;4972503;28;20062;-77
2023/02/26 02:23:21;;;;;;;6.32;2.60;;;;;;;;;;4987997;28;20145;-77
2023/02/26 02:26:06;;;;;;;7.75;2.67;;;;;;;;;;4973358;28;20050;-77
2023/02/26 02:28:39;;;;;;;5.93;3.20;;;;;;;;;;4972258;28;20054;-77
2023/02/26 02:31:07;;;;;;;5.20;3.03;;;;;;;;;;4992075;28;20058;-77
2023/02/26 02:33:45;;;;;;;5.82;2.80;;;;;;;;;;4976133;28;20097;-77
2023/02/26 02:36:19;;;;;;;6.80;2.83;;;;;;;;;;4992344;28;20455;-77
2023/02/26 02:38:49;;;;;;;7.20;3.15;;;;;;;;;;4976801;28;20491;-77
2023/02/26 02:41:29;;;;;;;5.10;2.33;;;;;;;;;;4975390;28;20055;-76
2023/02/26 02:43:57;;;;;;;4.72;2.70;;;;;;;;;;4980050;28;20057;-77
2023/02/26 02:46:26;;;;;;;6.72;3.00;;;;;;;;;;4978859;28;20061;-77
2023/02/26 02:49:07;;;;;;;8.02;2.78;;;;;;;;;;4993725;28;20063;-77
2023/02/26 02:51:50;;;;;;;4.50;2.58;;;;;;;;;;4961299;28;20070;-77
2023/02/26 02:54:42;;;;;;;4.47;2.63;;;;;;;;;;4976900;28;20444;-76
2023/02/26 02:57:15;;;;;;;6.80;2.90;;;;;;;;;;4959110;28;20428;-77
2023/02/26 02:59:43;;;;;;;;;;;;;;;;;;4977489;28;20058;-77
2023/02/26 03:02:22;;;;;;;7.28;3.53;;;;;;;;;;4994231;28;19926;-77
2023/02/26 03:04:48;;;;;;;5.55;3.40;;;;;;;;;;4989969;28;20058;-77
2023/02/26 03:07:15;;;;;;;5.93;3.47;;;;;;;;;;4958009;28;20055;-77
2023/02/26 03:09:42;;;;;;;5.68;2.53;;;;;;;;;;4957566;28;20051;-77
2023/02/26 03:12:09;;;;;;;4.13;2.65;;;;;;;;;;4990332;28;20610;-76
2023/02/26 03:14:35;;;;;;;8.05;3.10;;;;;;;;;;4974380;28;20221;-77
2023/02/26 03:17:13;;;;;;;8.75;3.63;;;;;;;;;;4960112;28;20065;-77
2023/02/26 03:19:49;;;;;;;3.65;2.80;;;;;;;;;;4977486;28;20058;-77
2023/02/26 03:22:31;;;;;;;6.60;2.35;;;;;;;;;;4998165;28;20110;-78
2023/02/26 03:25:07;;;;;;;5.70;3.38;;;;;;;;;;4997628;28;20100;-78
2023/02/26 03:27:45;;;;;;;3.22;2.72;;;;;;;;;;4980551;28;20093;-78
2023/02/26 03:30:23;;;;;;;4.65;2.85;;;;;;;;;;4997760;28;20057;-78
2023/02/26 03:33:04;;;;;;;4.95;2.60;;;;;;;;;;4993184;28;20062;-77
2023/02/26 03:35:44;;;;;;;4.65;2.63;;;;;;;;;;4978865;28;20358;-77
2023/02/26 03:38:16;;;;;;;8.70;3.00;;;;;;;;;;4996219;28;20070;-77
2023/02/26 03:40:52;;;;;;;5.13;2.80;;;;;;;;;;4945443;28;20051;-78
2023/02/26 03:43:21;;;;;;;4.40;2.28;;;;;;;;;;4976478;28;20061;-77
2023/02/26 03:45:49;;;;;;;6.18;2.90;;;;;;;;;;4975878;28;20058;-77
2023/02/26 03:48:18;;;;;;;4.97;2.60;;;;;;;;;;4958955;28;20057;-77
2023/02/26 03:50:46;;;;;;;3.83;2.40;;;;;;;;;;4973149;28;20054;-77
2023/02/26 03:53:15;;;;;;;3.13;2.50;;;;;;;;;;4989810;28;20085;-77
2023/02/26 03:56:19;;;;;;;3.90;2.50;;;;;;;;;;4975593;28;20416;-77
2023/02/26 03:58:46;;;;;;;6.05;2.70;;;;;;;;;;4972203;28;20243;-77
2023/02/26 04:01:21;;;;;;;4.55;2.55;;;;;;;;;;4973915;28;20134;-77
2023/02/26 04:04:10;;;;;;;5.22;2.47;;;;;;;;;;4957949;28;20058;-76
2023/02/26 04:06:36;;;;;;;6.15;2.53;;;;;;;;;;4934805;28;20130;-76
2023/02/26 04:09:03;;;;;;;4.15;2.67;;;;;;;;;;4971349;28;20503;-76
2023/02/26 04:11:30;;;;;;;4.68;2.65;;;;;;;;;;4987797;28;20054;-77
2023/02/26 04:13:57;;;;;;;4.47;2.75;;;;;;;;;;4957069;28;20426;-77
2023/02/26 04:16:23;;;;;;;7.28;2.88;;;;;;;;;;4972949;28;20450;-77
2023/02/26 04:18:51;;;;;;;5.25;2.72;;;;;;;;;;4956802;28;20090;-76
2023/02/26 04:21:19;;;;;;;5.13;2.75;;;;;;;;;;4972702;28;20129;-77
2023/02/26 04:23:46;;;;;;;6.18;3.13;;;;;;;;;;4957572;28;20066;-77
2023/02/26 04:26:13;;;;;;;4.68;2.75;;;;;;;;;;4974530;28;20109;-77
2023/02/26 04:28:40;;;;;;;6.22;2.63;;;;;;;;;;4974343;28;20496;-78
2023/02/26 04:31:07;;;;;;;8.82;4.03;;;;;;;;;;4957134;28;20051;-76
2023/02/26 04:33:35;;;;;;;5.68;3.13;;;;;;;;;;4973190;28;20553;-76
2023/02/26 04:36:03;;;;;;;5.18;2.60;;;;;;;;;;4986573;28;20419;-76
2023/02/26 04:38:30;;;;;;;5.55;3.45;;;;;;;;;;4987544;28;20051;-77
2023/02/26 04:40:57;;;;;;;8.80;4.88;;;;;;;;;;4988281;28;20404;-76
2023/02/26 04:43:24;;;;;;;4.07;2.88;;;;;;;;;;4956826;28;20062;-76
2023/02/26 04:45:50;;;;;;;6.93;2.40;;;;;;;;;;4972496;28;20519;-76
2023/02/26 04:48:17;;;;;;;4.50;2.67;;;;;;;;;;4971509;28;20096;-76
2023/02/26 04:50:45;;;;;;;7.38;2.50;;;;;;;;;;4988018;28;20417;-76
2023/02/26 04:53:12;;;;;;;4.40;2.40;;;;;;;;;;4986710;28;20050;-76
2023/02/26 04:55:42;;;;;;;5.10;2.80;;;;;;;;;;4972884;28;20554;-76
2023/02/26 04:58:09;;;;;;;4.72;2.45;;;;;;;;;;4972502;28;20058;-76
2023/02/26 05:00:36;;;;;;;5.05;2.78;;;;;;;;;;4954160;28;20073;-75
2023/02/26 05:03:03;;;;;;;7.75;2.70;;;;;;;;;;4937495;29;20062;-76
2023/02/26 05:05:30;;;;;;;5.38;2.42;;;;;;;;;;4952309;29;20134;-75
2023/02/26 05:07:57;;;;;;;2.90;2.53;;;;;;;;;;4952621;29;20059;-76
2023/02/26 05:10:24;;;;;;;4.40;3.00;;;;;;;;;;4968862;28;20082;-76
2023/02/26 05:12:51;;;;;;;4.47;2.65;;;;;;;;;;4936919;29;20129;-76
2023/02/26 05:15:17;;;;;;;4.30;2.80;;;;;;;;;;4941894;28;20091;-77
2023/02/26 05:17:45;;;;;;;5.57;2.80;;;;;;;;;;4945839;29;20517;-76
2023/02/26 05:20:12;;;;;;;7.78;3.90;;;;;;;;;;4944079;28;20467;-75
2023/02/26 05:22:39;;;;;;;9.52;2.90;;;;;;;;;;4987847;28;20098;-75
2023/02/26 05:25:06;;;;;;;5.45;3.03;;;;;;;;;;4971516;28;20086;-77
2023/02/26 05:27:33;;;;;;;7.45;3.40;;;;;;;;;;4988074;28;20074;-77
2023/02/26 05:30:00;;;;;;;8.07;3.70;;;;;;;;;;4972396;28;20127;-77
2023/02/26 05:32:27;;;;;;;6.35;3.97;;;;;;;;;;4956236;28;20050;-76
2023/02/26 05:34:54;;;;;;;4.72;3.08;;;;;;;;;;4971708;28;20062;-77
2023/02/26 05:37:21;;;;;;;7.70;2.95;;;;;;;;;;4975198;28;20051;-77
2023/02/26 05:39:48;;;;;;;5.35;3.10;;;;;;;;;;4952948;28;20105;-77
2023/02/26 05:42:14;;;;;;;4.50;3.03;;;;;;;;;;4946194;28;20066;-76
2023/02/26 05:44:41;;;;;;;5.38;3.20;;;;;;;;;;4951850;28;20058;-77
2023/02/26 05:47:08;;;;;;;6.70;2.67;;;;;;;;;;4968516;28;20066;-77
2023/02/26 05:49:35;;;;;;;5.60;3.58;;;;;;;;;;4967724;28;20066;-76
2023/02/26 05:52:01;;;;;;;6.45;3.70;;;;;;;;;;4968342;28;20043;-77
2023/02/26 05:54:28;;;;;;;8.85;3.78;;;;;;;;;;4970757;28;20047;-77
2023/02/26 05:56:55;;;;;;;11.43;4.05;;;;;;;;;;4968722;28;20051;-75
2023/02/26 05:59:22;;;;;;;7.88;3.92;;;;;;;;;;4952812;29;20055;-75
2023/02/26 06:01:49;;;;;;;8.13;3.80;;;;;;;;;;4968761;28;20055;-75
2023/02/26 06:04:15;;;;;;;9.68;3.47;;;;;;;;;;4970781;28;20062;-76
2023/02/26 06:06:42;;;;;;;8.55;3.58;;;;;;;;;;4987283;28;20057;-77
2023/02/26 06:09:09;;;;;;;7.25;3.92;;;;;;;;;;4986892;28;20245;-77
2023/02/26 06:11:37;;;;;;;10.02;4.75;;;;;;;;;;4968868;28;20126;-76
2023/02/26 06:14:04;;;;;;;6.40;3.90;;;;;;;;;;4987676;28;20070;-76
2023/02/26 06:16:31;;;;;;;7.15;4.38;;;;;;;;;;4986913;28;20115;-76
2023/02/26 06:18:58;;;;;;;6.30;3.53;;;;;;;;;;4971237;28;20061;-76
2023/02/26 06:21:25;;;;;;;6.95;3.55;;;;;;;;;;4971060;28;20055;-76
2023/02/26 06:23:52;;;;;;;3.78;3.05;;;;;;;;;;4973034;28;20050;-75
2023/02/26 06:26:18;;;;;;;5.60;3.33;;;;;;;;;;4977325;28;20054;-75
2023/02/26 06:28:48;;;;;;;4.53;2.92;;;;;;;;;;4955103;28;20066;-76
2023/02/26 06:31:15;;;;;;;8.95;3.65;;;;;;;;;;4986745;28;20070;-76
2023/02/26 06:33:42;;;;;;;6.00;3.55;;;;;;;;;;4971030;28;20058;-75
2023/02/26 06:36:12;;;;;;;7.45;3.65;;;;;;;;;;4970543;28;20061;-76
2023/02/26 06:38:39;;;;;;;6.03;3.72;;;;;;;;;;4988968;28;20050;-77
2023/02/26 06:41:05;;;;;;;8.18;4.38;;;;;;;;;;4954066;29;20055;-77
2023/02/26 06:43:32;;;;;;;5.15;3.42;;;;;;;;;;4972358;28;20464;-77
2023/02/26 06:45:59;;;;;;;7.88;4.22;;;;;;;;;;4975974;28;20415;-77
2023/02/26 06:48:26;;;;;;;6.28;3.80;;;;;;;;;;4956967;28;20328;-77
2023/02/26 06:50:53;;;;;;;8.68;4.07;;;;;;;;;;4973377;28;20050;-76
2023/02/26 06:53:19;;;;;;;9.82;4.38;;;;;;;;;;4971754;28;20058;-76
2023/02/26 06:55:49;;;;;;;8.80;3.95;;;;;;;;;;4954986;28;20051;-76
2023/02/26 06:58:16;;;;;;;8.88;3.80;;;;;;;;;;4954655;28;20051;-77
2023/02/26 07:00:42;;;;;;;9.70;4.82;;;;;;;;;;4987304;28;20050;-76
2023/02/26 07:03:11;;;;;;;20.70;5.50;;;;;;;;;;4987890;28;20495;-76
2023/02/26 07:05:38;;;;;;;8.35;3.58;;;;;;;;;;4987213;28;20058;-76
2023/02/26 07:08:04;;;;;;;5.78;3.38;;;;;;;;;;4954624;28;20055;-76
2023/02/26 07:10:32;;;;;;;6.75;3.78;;;;;;;;;;4954544;28;20051;-76
2023/02/26 07:12:59;;;;;;;5.70;3.17;;;;;;;;;;4988094;28;20074;-76
2023/02/26 07:15:26;;;;;;;7.97;3.05;;;;;;;;;;4971881;28;20061;-75
2023/02/26 07:17:52;;;;;;;6.88;3.63;;;;;;;;;;4973444;28;20054;-74
2023/02/26 07:20:19;;;;;;;7.00;3.35;;;;;;;;;;4973632;28;20557;-73
2023/02/26 07:22:46;;;;;;;8.55;3.40;;;;;;;;;;4957145;28;20050;-74
2023/02/26 07:25:13;;;;;;;8.13;2.70;;;;;;;;;;4989660;28;20503;-82
2023/02/26 07:27:40;;;;;;;7.35;3.15;;;;;;;;;;4973457;28;20081;-74
2023/02/26 07:30:09;;;;;;;9.35;3.53;;;;;;;;;;4989182;28;20082;-73
2023/02/26 07:32:36;;;;;;;6.05;2.70;;;;;;;;;;4952867;28;20534;-73
2023/02/26 07:35:03;;;;;;;7.72;3.25;;;;;;;;;;4971406;28;20058;-71
2023/02/26 07:37:30;;;;;;;6.38;3.00;;;;;;;;;;4970111;28;20135;-72
2023/02/26 07:39:57;;;;;;;7.07;3.60;;;;;;;;;;4955638;28;20066;-73
2023/02/26 07:42:24;;;;;;;5.00;3.00;;;;;;;;;;4986423;28;20562;-73
2023/02/26 07:44:51;;;;;;;7.60;2.95;;;;;;;;;;4954734;28;20054;-73
2023/02/26 07:47:17;;;;;;;6.68;3.92;;;;;;;;;;4986858;28;20046;-71
2023/02/26 07:49:44;;;;;;;8.00;2.75;;;;;;;;;;4971374;28;20050;-73
2023/02/26 07:52:11;;;;;;;4.20;2.70;;;;;;;;;;4970023;28;20051;-72
2023/02/26 07:54:37;;;;;;;6.07;2.70;;;;;;;;;;4986284;28;20149;-72
2023/02/26 07:57:04;;;;;;;4.55;2.40;;;;;;;;;;4970067;28;20243;-73
2023/02/26 07:59:31;;;;;;;4.95;2.42;;;;;;;;;;4968946;28;20054;-73
2023/02/26 08:01:58;;;;;;;5.03;2.25;;;;;;;;;;4983349;28;20065;-72
2023/02/26 08:04:24;;;;;;;8.35;3.42;;;;;;;;;;4970208;28;20058;-73
2023/02/26 08:06:53;;;;;;;4.38;2.35;;;;;;;;;;4969272;28;20419;-72
2023/02/26 08:09:20;;;;;;;4.43;2.55;;;;;;;;;;4986266;28;20166;-73
2023/02/26 08:11:48;;;;;;;7.75;3.33;;;;;;;;;;4969547;28;20137;-73
2023/02/26 08:14:14;;;;;;;8.98;3.63;;;;;;;;;;4987369;28;20066;-73
2023/02/26 08:16:41;;;;;;;10.48;2.90;;;;;;;;;;4971052;28;20073;-74
2023/02/26 08:19:08;;;;;;;3.20;2.17;;;;;;;;;;4952787;28;20055;-73
2023/02/26 08:21:35;;;;;;;3.38;2.35;;;;;;;;;;4950751;28;20055;-74
2023/02/26 08:24:02;;;;;;;7.07;2.67;;;;;;;;;;4959877;28;20051;-74
2023/02/26 08:26:29;;;;;;;3.45;2.17;;;;;;;;;;4960090;28;20051;-74
2023/02/26 08:28:55;;;;;;;4.00;1.88;;;;;;;;;;4958577;28;20059;-75
2023/02/26 08:31:22;;;;;;;5.57;2.55;;;;;;;;;;4959270;28;20055;-74
2023/02/26 08:33:50;;;;;;;4.57;2.50;;;;;;;;;;4952524;28;20059;-74
2023/02/26 08:36:17;;;;;;;6.38;2.55;;;;;;;;;;4950364;28;20055;-75
2023/02/26 08:38:44;;;;;;;5.03;2.58;;;;;;;;;;4951326;29;20499;-75
2023/02/26 08:41:12;;;;;;;6.03;2.78;;;;;;;;;;4935946;29;20050;-75
2023/02/26 08:43:38;;;;;;;5.40;2.42;;;;;;;;;;4951857;29;20062;-73
2023/02/26 08:46:05;;;;;;;3.55;2.03;;;;;;;;;;4952665;28;20522;-75
2023/02/26 08:48:36;;;;;;;4.45;1.90;;;;;;;;;;4952456;28;20598;-75
2023/02/26 08:51:05;;;;;;;2.35;1.70;;;;;;;;;;4985703;28;20042;-75
2023/02/26 08:53:32;;;;;;;5.68;1.98;;;;;;;;;;4971459;28;20047;-77
2023/02/26 08:55:59;;;;;;;6.38;2.72;;;;;;;;;;4970985;28;20054;-76
2023/02/26 08:58:25;;;;;;;3.25;1.80;;;;;;;;;;4987176;28;20078;-78
2023/02/26 09:00:52;;;;;;;3.63;1.48;;;;;;;;;;4957020;28;20057;-78
2023/02/26 09:03:19;;;;;;;5.05;1.88;;;;;;;;;;4972376;28;20058;-84
2023/02/26 09:05:46;;;;;;;2.67;1.38;;;;;;;;;;4969466;28;20073;-77
2023/02/26 09:08:14;;;;;;;2.50;1.20;;;;;;;;;;4972953;28;20055;-80
2023/02/26 09:10:41;;;;;;;2.72;1.10;;;;;;;;;;4952671;28;20141;-75
2023/02/26 09:13:08;;;;;;;3.70;1.30;;;;;;;;;;4970201;28;20067;-77
2023/02/26 09:15:35;;;;;;;1.70;1.10;;;;;;;;;;4976572;28;20106;-74
2023/02/26 09:18:02;;;;;;;4.22;1.98;;;;;;;;;;4985345;28;20384;-74
2023/02/26 09:20:29;;;;;;;2.95;1.40;;;;;;;;;;4985935;28;20053;-74
2023/02/26 09:22:55;;;;;;;3.03;1.30;;;;;;;;;;4953237;28;20307;-75
2023/02/26 09:25:22;;;;;;;1.85;1.10;;;;;;;;;;4985073;28;20057;-74
2023/02/26 09:27:49;;;;;;;6.05;1.30;;;;;;;;;;4937602;28;20610;-75
2023/02/26 09:30:16;;;;;;;2.42;1.08;;;;;;;;;;4986367;28;20050;-74
2023/02/26 09:32:45;;;;;;;1.67;1.30;;;;;;;;;;4969899;28;20050;-74
2023/02/26 09:35:12;;;;;;;4.32;1.50;;;;;;;;;;4977888;28;20046;-73
2023/02/26 09:37:39;;;;;;;5.97;2.83;;;;;;;;;;4984659;28;20065;-74
2023/02/26 09:40:07;;;;;;;5.22;1.20;;;;;;;;;;4952752;28;20065;-75
2023/02/26 09:43:00;;;;;;;3.13;1.60;;;;;;;;;;4985192;28;20085;-74
2023/02/26 09:45:36;;;;;;;1.67;0.80;;;;;;;;;;4979078;28;20129;-75
2023/02/26 09:48:05;;;;;;;4.20;1.75;;;;;;;;;;4993953;28;20419;-74
2023/02/26 09:50:45;;;;;;;5.30;2.13;;;;;;;;;;4995322;28;20140;-75
2023/02/26 09:53:32;;;;;;;3.63;1.25;;;;;;;;;;4979395;28;20062;-74
2023/02/26 09:56:05;;;;;;;3.30;1.30;;;;;;;;;;4964411;28;20080;-76
2023/02/26 09:58:35;;;;;;;2.05;1.17;;;;;;;;;;4997154;28;20054;-74
2023/02/26 10:01:09;;;;;;;2.63;1.05;;;;;;;;;;4997175;28;20042;-73
2023/02/26 10:03:51;;;;;;;4.97;1.33;;;;;;;;;;4979960;28;20050;-74
2023/02/26 10:06:24;;;;;;;2.47;1.23;;;;;;;;;;4991947;28;20070;-74
2023/02/26 10:08:56;;;;;;;;;;;;;;;;;;4978337;28;20055;-74
2023/02/26 10:11:37;;;;;;;2.75;1.20;;;;;;;;;;4976107;28;19930;-74
2023/02/26 10:14:07;;;;;;;3.88;1.35;;;;;;;;;;4992422;28;20072;-74
2023/02/26 10:16:38;;;;;;;2.85;1.30;;;;;;;;;;4994569;28;20058;-75
2023/02/26 10:19:15;;;;;;;4.45;1.60;;;;;;;;;;4991490;28;20050;-76
2023/02/26 10:22:15;;;;;;;3.10;1.60;;;;;;;;;;4975371;28;20059;-75
2023/02/26 10:24:45;;;;;;;4.88;1.77;;;;;;;;;;4969679;28;20123;-75
2023/02/26 10:27:18;;;;;;;6.63;1.80;;;;;;;;;;4978239;28;20050;-76
2023/02/26 10:29:58;;;;;;;2.20;1.38;;;;;;;;;;4945921;28;20058;-74
2023/02/26 10:33:00;;;;;;;2.28;1.70;;;;;;;;;;4960473;28;20074;-75
2023/02/26 10:35:28;;;;;;;1.83;1.40;;;;;;;;;;4963010;28;20066;-74
2023/02/26 10:38:03;;;;;;;2.90;1.60;;;;;;;;;;4970390;28;20051;-73
2023/02/26 10:40:58;;;;;;;2.42;1.55;;;;;;;;;;4979801;28;20122;-74
2023/02/26 10:43:39;;;;;;;1.88;1.40;;;;;;;;;;4965186;28;20046;-74
2023/02/26 10:46:18;;;;;;;2.45;1.30;;;;;;;;;;4994856;28;20134;-74
2023/02/26 10:48:52;;;;;;;3.58;1.50;;;;;;;;;;4958019;28;20086;-74
2023/02/26 10:51:22;;;;;;;1.98;1.75;;;;;;;;;;4962548;28;20050;-74
2023/02/26 10:54:22;;;;;;;3.28;1.20;;;;;;;;;;4999566;28;20138;-73
2023/02/26 10:56:49;;;;;;;1.48;1.10;;;;;;;;;;4955339;28;20051;-73
2023/02/26 10:59:16;;;;;;;1.40;1.30;;;;;;;;;;4969681;28;20054;-74
2023/02/26 11:01:43;;;;;;;1.52;1.00;;;;;;;;;;4983924;28;20073;-75
2023/02/26 11:04:13;;;;;;;1.55;1.23;;;;;;;;;;4965290;28;20090;-74
2023/02/26 11:06:47;;;;;;;1.95;1.35;;;;;;;;;;4968303;28;20113;-74
2023/02/26 11:09:22;;;;;;;;;;;;;;;;;;4964709;28;20062;-75
2023/02/26 11:12:09;;;;;;;1.60;1.50;;;;;;;;;;4984016;28;19949;-75
2023/02/26 11:14:36;;;;;;;1.67;1.40;;;;;;;;;;4967817;28;20081;-76
2023/02/26 11:17:18;;;;;;;1.60;1.15;;;;;;;;;;4957497;28;20050;-76
2023/02/26 11:19:58;;;;;;;2.45;1.40;;;;;;;;;;4948303;28;20062;-74
2023/02/26 11:22:26;;;;;;;1.25;0.90;;;;;;;;;;4986777;28;20046;-74
2023/02/26 11:24:53;;;;;;;3.22;1.40;;;;;;;;;;4982697;28;20058;-74
2023/02/26 11:27:25;;;;;;;4.40;1.15;;;;;;;;;;4970492;28;20058;-74
2023/02/26 11:29:55;;;;;;;2.08;1.17;;;;;;;;;;4951199;28;20051;-74
2023/02/26 11:32:33;;;;;;;3.53;1.55;;;;;;;;;;4982318;28;20130;-74
2023/02/26 11:35:00;;;;;;;1.65;1.08;;;;;;;;;;4965994;28;20169;-74
2023/02/26 11:37:34;;;;;;;2.50;1.10;;;;;;;;;;4963061;28;20084;-75
2023/02/26 11:40:12;;;;;;;2.40;1.63;;;;;;;;;;4959208;28;20061;-74
2023/02/26 11:42:48;;;;;;;2.65;1.58;;;;;;;;;;4962430;28;20051;-74
2023/02/26 11:45:16;;;;;;;1.10;1.00;;;;;;;;;;4965042;28;20072;-74
2023/02/26 11:47:47;;;;;;;2.30;1.20;;;;;;;;;;4966339;28;20062;-75
2023/02/26 11:50:18;;;;;;;2.25;1.20;;;;;;;;;;4992803;28;20160;-74
2023/02/26 11:52:46;;;;;;;1.15;1.05;;;;;;;;;;4983787;28;20419;-74
2023/02/26 11:55:21;;;;;;;1.55;1.00;;;;;;;;;;4965199;28;20129;-75
2023/02/26 11:57:55;;;;;;;1.20;1.00;;;;;;;;;;4959923;28;20208;-75
2023/02/26 12:00:36;;;;;;;1.65;1.25;;;;;;;;;;4966790;28;20051;-74
2023/02/26 12:03:13;;;;;;;2.05;1.27;;;;;;;;;;4960552;28;20051;-75
2023/02/26 12:05:40;;;;;;;2.08;1.00;;;;;;;;;;4949935;28;20498;-75
2023/02/26 12:08:17;;;;;;;2.47;1.20;;;;;;;;;;4985018;28;20085;-75
2023/02/26 12:11:13;;;;;;;1.42;1.33;;;;;;;;;;4969502;28;20065;-74
2023/02/26 12:13:59;;;;;;;1.48;1.15;;;;;;;;;;4985637;28;20054;-75
2023/02/26 12:16:32;;;;;;;1.20;1.00;;;;;;;;;;4979513;28;20418;-74
2023/02/26 12:19:11;;;;;;;1.17;1.05;;;;;;;;;;4994234;28;20062;-74
2023/02/26 12:21:41;;;;;;;1.27;1.17;;;;;;;;;;4961785;28;20082;-74
2023/02/26 12:24:56;;;;;;;1.33;1.10;;;;;;;;;;4993399;28;20120;-74
2023/02/26 12:27:50;;;;;;;4.78;1.55;;;;;;;;;;4974154;28;20529;-75
2023/02/26 12:30:41;;;;;;;1.63;1.10;;;;;;;;;;4963970;28;20054;-74
2023/02/26 12:33:28;;;;;;;1.30;1.20;;;;;;;;;;4995933;28;20503;-74
2023/02/26 12:36:22;;;;;;;2.75;1.58;;;;;;;;;;4966851;28;20055;-75
2023/02/26 12:38:52;;;;;;;1.48;1.25;;;;;;;;;;4978541;28;20054;-75
2023/02/26 12:41:18;;;;;;;3.20;1.40;;;;;;;;;;4982707;28;20104;-74
2023/02/26 12:43:53;;;;;;;5.35;1.17;;;;;;;;;;4985339;28;20060;-74
2023/02/26 12:46:42;;;;;;;1.15;0.90;;;;;;;;;;4981373;28;20054;-74
2023/02/26 12:49:24;;;;;;;1.13;1.05;;;;;;;;;;5003868;28;20085;-74
2023/02/26 12:52:18;;;;;;;2.17;1.13;;;;;;;;;;4988518;28;20066;-74
2023/02/26 12:55:17;;;;;;;2.20;1.00;;;;;;;;;;5003432;28;20541;-74
2023/02/26 12:58:09;;;;;;;2.60;0.80;;;;;;;;;;4962841;28;20920;-74
2023/02/26 13:00:45;;;;;;;1.35;0.82;;;;;;;;;;4998149;28;20526;-74
2023/02/26 13:03:30;;;;;;;0.75;0.75;;;;;;;;;;4998949;28;20050;-74
2023/02/26 13:06:11;;;;;;;1.45;0.85;;;;;;;;;;4989837;28;20054;-74
2023/02/26 13:09:04;;;;;;;1.52;0.80;;;;;;;;;;4961209;28;20046;-74
2023/02/26 13:11:44;;;;;;;1.00;0.77;;;;;;;;;;4968349;28;20058;-74
2023/02/26 13:14:52;;;;;;;1.05;0.95;;;;;;;;;;4977991;28;20047;-74
2023/02/26 13:17:48;;;;;;;1.33;1.00;;;;;;;;;;4978500;28;20098;-74
2023/02/26 13:20:21;;;;;;;0.80;0.80;;;;;;;;;;4987758;28;20050;-75
2023/02/26 13:22:51;;;;;;;1.23;0.70;;;;;;;;;;4996536;28;20129;-74
2023/02/26 13:25:35;;;;;;;2.30;1.00;;;;;;;;;;4983135;28;20050;-74
2023/02/26 13:28:26;;;;;;;1.88;0.90;;;;;;;;;;4982574;28;20056;-74
2023/02/26 13:30:54;;;;;;;1.02;0.93;;;;;;;;;;4928256;28;20055;-75
2023/02/26 13:33:29;;;;;;;0.80;0.80;;;;;;;;;;4954860;28;1172287;-78
2023/02/26 13:35:56;;;;;;;0.68;0.65;;;;;;;;;;4975379;28;20058;-74
2023/02/26 13:38:53;;;;;;;0.70;0.70;;;;;;;;;;4980296;28;20054;-73
2023/02/26 13:41:39;;;;;;;2.20;0.80;;;;;;;;;;4995659;28;20086;-74
2023/02/26 13:44:56;;;;;;;1.65;0.85;;;;;;;;;;4962426;28;20081;-73
2023/02/26 13:47:46;;;;;;;1.30;1.10;;;;;;;;;;4957369;28;20057;-74
2023/02/26 13:50:41;;;;;;;2.08;0.80;;;;;;;;;;4976601;28;20054;-73
2023/02/26 13:53:23;;;;;;;1.25;0.80;;;;;;;;;;4994349;28;20052;-73
2023/02/26 13:55:51;;;;;;;1.75;0.80;;;;;;;;;;4978717;28;20086;-73
2023/02/26 13:58:21;;;;;;;1.42;0.88;;;;;;;;;;4958756;28;20057;-74
2023/02/26 14:01:06;;;;;;;1.60;0.88;;;;;;;;;;4991330;28;20587;-74
2023/02/26 14:03:34;;;;;;;1.10;1.00;;;;;;;;;;4974250;28;20054;-73
2023/02/26 14:06:22;;;;;;;1.80;0.98;;;;;;;;;;4958628;28;20050;-73
2023/02/26 14:08:52;;;;;;;1.85;1.15;;;;;;;;;;4969943;28;20065;-74
2023/02/26 14:11:31;;;;;;;1.25;0.85;;;;;;;;;;4980112;28;20053;-74
2023/02/26 14:14:20;;;;;;;1.38;1.23;;;;;;;;;;4991177;28;20050;-73
2023/02/26 14:16:54;;;;;;;0.82;0.68;;;;;;;;;;4975195;28;20216;-75
2023/02/26 14:19:31;;;;;;;0.95;0.70;;;;;;;;;;4978797;28;20630;-76
2023/02/26 14:22:22;;;;;;;2.58;1.20;;;;;;;;;;4977996;28;20090;-74
2023/02/26 14:25:15;;;;;;;1.63;0.73;;;;;;;;;;4979968;28;20126;-74
2023/02/26 14:27:43;;;;;;;1.60;0.70;;;;;;;;;;4986704;28;20059;-74
2023/02/26 14:30:10;;;;;;;1.17;0.77;;;;;;;;;;4966205;28;20069;-74
2023/02/26 14:32:55;;;;;;;1.15;0.70;;;;;;;;;;4998437;28;20059;-73
2023/02/26 14:35:33;;;;;;;1.63;0.80;;;;;;;;;;4980146;28;20112;-74
2023/02/26 14:38:22;;;;;;;2.55;0.90;;;;;;;;;;4981777;28;20054;-74
2023/02/26 14:40:59;;;;;;;2.15;0.80;;;;;;;;;;4983523;28;20050;-74
2023/02/26 14:43:50;;;;;;;1.48;0.80;;;;;;;;;;4973396;28;20058;-74
2023/02/26 14:46:17;;;;;;;0.50;0.50;;;;;;;;;;4959857;28;20066;-74
2023/02/26 14:48:43;;;;;;;1.95;0.85;;;;;;;;;;4962540;28;20090;-74
2023/02/26 14:51:34;;;;;;;0.80;0.68;;;;;;;;;;4981561;28;20526;-74
2023/02/26 14:54:33;;;;;;;0.68;0.68;;;;;;;;;;5000156;28;20487;-74
2023/02/26 14:58:03;;;;;;;1.65;0.95;;;;;;;;;;4977088;28;20145;-74
2023/02/26 15:00:40;;;;;;;2.03;1.20;;;;;;;;;;4946771;29;20062;-74
2023/02/26 15:03:31;;;;;;;1.45;0.80;;;;;;;;;;4932679;29;20103;-74
2023/02/26 15:06:19;;;;;;;1.52;0.80;;;;;;;;;;4998165;28;20054;-74
2023/02/26 15:08:50;;;;;;;0.77;0.65;;;;;;;;;;5003629;28;20059;-74
2023/02/26 15:11:20;;;;;;;0.98;0.60;;;;;;;;;;4984842;28;20427;-74
2023/02/26 15:14:04;;;;;;;1.05;0.75;;;;;;;;;;4982730;28;20050;-74
2023/02/26 15:17:19;;;;;;;1.25;0.95;;;;;;;;;;4992179;28;20043;-74
2023/02/26 15:20:10;;;;;;;1.58;1.23;;;;;;;;;;4979021;28;35526;-74